createdAt,value
2019-02-27T00:02:45.181Z,3.14
2019-02-27T00:07:48.326Z,3.14
2019-02-27T00:12:52.014Z,3.13
2019-02-27T00:17:55.680Z,3.04
2019-02-27T00:22:58.702Z,3.02
2019-02-27T00:28:01.803Z,3.05
2019-02-27T00:33:05.376Z,3.08
2019-02-27T00:38:08.577Z,2.85
2019-02-27T00:43:28.434Z,2.91
2019-02-27T00:48:32.247Z,3.09
2019-02-27T00:53:35.323Z,3.28
2019-02-27T00:58:38.509Z,2.90
2019-02-27T01:03:41.669Z,3.13
2019-02-27T01:08:45.190Z,3.04
2019-02-27T01:13:48.393Z,3.09
2019-02-27T01:18:51.363Z,2.89
2019-02-27T01:23:54.648Z,2.98
2019-02-27T01:28:57.648Z,2.68
2019-02-27T01:34:00.721Z,2.66
2019-02-27T01:39:09.012Z,2.64
2019-02-27T01:44:13.702Z,2.46
2019-02-27T01:49:16.816Z,2.44
2019-02-27T01:54:20.075Z,2.19
2019-02-27T01:59:23.439Z,2.31
2019-02-27T02:04:26.685Z,1.96
2019-02-27T02:09:35.893Z,1.72
2019-02-27T02:15:16.834Z,1.42
2019-02-27T02:20:46.671Z,1.16
2019-02-27T02:26:23.727Z,1.00
2019-02-27T02:32:04.976Z,0.75
2019-02-27T02:38:14.213Z,1.03
2019-02-27T02:44:36.634Z,0.77
2019-02-27T02:50:29.201Z,0.46
2019-02-27T02:56:24.967Z,0.50
2019-02-27T03:01:57.819Z,0.31
2019-02-27T03:07:50.087Z,0.48
2019-02-27T03:13:45.779Z,0.31
2019-02-27T03:19:41.727Z,0.57
2019-02-27T03:25:40.112Z,0.88
2019-02-27T03:31:39.180Z,0.65
2019-02-27T03:37:21.504Z,0.75
2019-02-27T03:43:24.297Z,0.52
2019-02-27T03:49:17.040Z,0.19
2019-02-27T03:54:45.478Z,-0.08
2019-02-27T04:00:52.593Z,-0.24
2019-02-27T04:07:14.616Z,0.06
2019-02-27T04:12:17.662Z,0.06
2019-02-27T04:17:26.921Z,0.03
2019-02-27T04:22:29.979Z,0.03
2019-02-27T04:27:32.906Z,-0.07
2019-02-27T04:32:35.929Z,0.03
2019-02-27T04:37:39.059Z,0.16
2019-02-27T04:42:42.041Z,0.31
2019-02-27T04:47:44.988Z,0.20
2019-02-27T04:52:48.072Z,0.22
2019-02-27T04:57:51.117Z,0.25
2019-02-27T05:02:54.178Z,0.25
2019-02-27T05:07:57.387Z,0.41
2019-02-27T05:13:00.386Z,-0.06
2019-02-27T05:18:03.507Z,-0.47
2019-02-27T05:23:06.481Z,-0.74
2019-02-27T05:28:09.549Z,-0.76
2019-02-27T05:33:12.608Z,-0.33
2019-02-27T05:38:15.801Z,0.18
2019-02-27T05:43:18.795Z,0.65
2019-02-27T05:48:21.886Z,0.40
2019-02-27T05:53:24.891Z,0.51
2019-02-27T05:58:28.079Z,0.25
2019-02-27T06:03:31.074Z,0.24
2019-02-27T06:08:36.694Z,0.82
2019-02-27T06:13:39.589Z,1.09
2019-02-27T06:18:43.071Z,0.84
2019-02-27T06:23:46.119Z,0.49
2019-02-27T06:28:49.226Z,0.70
2019-02-27T06:33:52.326Z,0.47
2019-02-27T06:39:00.150Z,0.63
2019-02-27T06:44:01.513Z,0.58
2019-02-27T06:49:05.777Z,0.70
2019-02-27T06:54:08.968Z,0.77
2019-02-27T06:59:11.955Z,0.97
2019-02-27T07:04:15.047Z,0.91
2019-02-27T07:09:18.079Z,0.90
2019-02-27T07:14:21.409Z,1.13
2019-02-27T07:19:24.392Z,1.28
2019-02-27T07:24:27.445Z,1.42
2019-02-27T07:29:30.454Z,1.56
2019-02-27T07:34:33.437Z,1.65
2019-02-27T07:39:36.400Z,1.71
2019-02-27T07:44:39.554Z,1.99
2019-02-27T07:49:42.591Z,2.12
2019-02-27T07:54:45.953Z,2.25
2019-02-27T07:59:49.095Z,2.26
2019-02-27T08:04:54.724Z,2.57
2019-02-27T08:09:57.360Z,2.69
2019-02-27T08:15:00.336Z,2.65
2019-02-27T08:20:04.045Z,2.77
2019-02-27T08:25:08.791Z,3.02
2019-02-27T08:30:15.658Z,3.26
2019-02-27T08:35:18.700Z,3.48
2019-02-27T08:40:24.356Z,3.60
2019-02-27T08:45:27.111Z,3.75
2019-02-27T08:50:31.765Z,3.91
2019-02-27T08:55:39.024Z,3.93
2019-02-27T09:00:40.499Z,4.11
2019-02-27T09:05:43.545Z,4.05
2019-02-27T09:10:46.588Z,4.04
2019-02-27T09:15:49.541Z,4.22
2019-02-27T09:20:53.532Z,4.32
2019-02-27T09:25:57.645Z,4.42
2019-02-27T09:31:04.298Z,4.33
2019-02-27T09:36:08.037Z,4.18
2019-02-27T09:41:12.406Z,4.29
2019-02-27T09:46:19.297Z,4.08
2019-02-27T09:51:22.179Z,3.71
2019-02-27T09:56:29.219Z,4.07
2019-02-27T10:01:34.163Z,4.12
2019-02-27T10:06:35.850Z,4.11
2019-02-27T10:11:38.800Z,4.21
2019-02-27T10:16:41.856Z,4.55
2019-02-27T10:21:45.386Z,4.22
2019-02-27T10:26:48.505Z,4.03
2019-02-27T10:31:51.492Z,4.15
2019-02-27T10:36:54.664Z,3.79
2019-02-27T10:41:57.726Z,4.29
2019-02-27T10:47:00.841Z,4.59
2019-02-27T10:52:03.924Z,4.52
2019-02-27T10:57:06.944Z,4.50
2019-02-27T11:02:12.519Z,4.91
2019-02-27T11:07:15.903Z,5.05
2019-02-27T11:12:19.826Z,5.37
2019-02-27T11:17:22.767Z,5.64
2019-02-27T11:22:25.753Z,5.74
2019-02-27T11:27:28.775Z,6.02
2019-02-27T11:32:31.764Z,6.01
2019-02-27T11:37:34.982Z,6.26
2019-02-27T11:42:37.957Z,6.14
2019-02-27T11:47:45.075Z,6.00
2019-02-27T11:52:49.058Z,6.13
2019-02-27T11:57:51.283Z,6.37
2019-02-27T12:02:54.283Z,6.43
2019-02-27T12:07:57.516Z,6.38
2019-02-27T12:13:01.302Z,6.68
2019-02-27T12:18:04.882Z,6.51
2019-02-27T12:23:10.086Z,6.68
2019-02-27T12:28:15.231Z,6.86
2019-02-27T12:33:18.312Z,6.95
2019-02-27T12:38:21.368Z,7.09
2019-02-27T12:43:24.427Z,7.16
2019-02-27T12:48:27.419Z,7.29
2019-02-27T12:53:30.517Z,7.75
2019-02-27T12:58:33.601Z,7.69
2019-02-27T13:03:36.719Z,7.57
2019-02-27T13:08:39.856Z,7.85
2019-02-27T13:13:43.280Z,7.59
2019-02-27T13:18:46.588Z,7.80
2019-02-27T13:23:49.633Z,7.50
2019-02-27T13:28:52.973Z,7.40
2019-02-27T13:33:56.290Z,7.35
2019-02-27T13:38:59.490Z,7.50
2019-02-27T13:44:02.697Z,7.52
2019-02-27T13:49:05.643Z,7.58
2019-02-27T13:54:09.012Z,7.43
2019-02-27T13:59:12.065Z,7.34
2019-02-27T14:04:15.118Z,7.48
2019-02-27T14:09:19.088Z,7.66
2019-02-27T14:14:22.461Z,7.55
2019-02-27T14:19:25.583Z,7.51
2019-02-27T14:24:28.656Z,7.51
2019-02-27T14:29:32.034Z,7.73
2019-02-27T14:34:35.451Z,7.90
2019-02-27T14:39:38.555Z,7.72
2019-02-27T14:44:41.570Z,7.78
2019-02-27T14:49:44.644Z,7.79
2019-02-27T14:54:47.957Z,7.76
2019-02-27T14:59:51.293Z,7.77
2019-02-27T15:04:54.389Z,7.77
2019-02-27T15:09:57.474Z,7.70
2019-02-27T15:15:00.450Z,7.69
2019-02-27T15:20:05.617Z,7.50
2019-02-27T15:25:11.655Z,7.44
2019-02-27T15:30:18.076Z,7.49
2019-02-27T15:35:22.193Z,7.46
2019-02-27T15:40:28.565Z,7.32
2019-02-27T15:45:30.992Z,7.25
2019-02-27T15:50:34.208Z,7.22
2019-02-27T15:55:37.958Z,7.29
2019-02-27T16:00:41.076Z,7.05
2019-02-27T16:05:44.171Z,6.98
2019-02-27T16:10:54.530Z,6.99
2019-02-27T16:15:52.520Z,6.87
2019-02-27T16:20:55.969Z,6.87
2019-02-27T16:25:58.965Z,6.81
2019-02-27T16:31:05.911Z,6.73
2019-02-27T16:36:07.433Z,6.64
2019-02-27T16:41:10.956Z,6.58
2019-02-27T16:46:14.098Z,6.38
2019-02-27T16:51:17.298Z,6.45
2019-02-27T16:56:20.471Z,6.51
2019-02-27T17:01:29.174Z,6.34
2019-02-27T17:06:29.173Z,6.40
2019-02-27T17:11:33.212Z,6.45
2019-02-27T17:16:38.421Z,6.43
2019-02-27T17:21:41.769Z,6.38
2019-02-27T17:26:46.423Z,6.37
2019-02-27T17:31:52.639Z,6.40
2019-02-27T17:36:54.847Z,6.28
2019-02-27T17:41:57.929Z,6.32
2019-02-27T17:47:00.974Z,6.28
2019-02-27T17:52:11.092Z,6.34
2019-02-27T17:57:09.213Z,6.40
2019-02-27T18:02:12.386Z,6.37
2019-02-27T18:07:15.780Z,6.41
2019-02-27T18:12:18.837Z,6.38
2019-02-27T18:17:21.959Z,6.40
2019-02-27T18:22:24.927Z,6.23
2019-02-27T18:27:28.019Z,6.30
2019-02-27T18:32:31.013Z,6.18
2019-02-27T18:37:33.995Z,6.06
2019-02-27T18:42:37.028Z,6.10
2019-02-27T18:47:40.115Z,6.26
2019-02-27T18:52:43.388Z,6.22
2019-02-27T18:57:47.598Z,6.09
2019-02-27T19:02:53.260Z,6.25
2019-02-27T19:07:56.320Z,6.04
2019-02-27T19:13:00.767Z,5.90
2019-02-27T19:18:06.543Z,5.71
2019-02-27T19:23:10.232Z,5.54
2019-02-27T19:28:13.323Z,5.69
2019-02-27T19:33:16.435Z,5.77
2019-02-27T19:38:19.452Z,5.75
2019-02-27T19:43:22.593Z,5.65
2019-02-27T19:48:26.256Z,5.54
2019-02-27T19:53:30.482Z,5.42
2019-02-27T19:58:33.678Z,5.43
2019-02-27T20:03:36.980Z,5.38
2019-02-27T20:08:44.392Z,5.23
2019-02-27T20:13:45.140Z,5.14
2019-02-27T20:18:54.780Z,5.09
2019-02-27T20:23:53.344Z,4.80
2019-02-27T20:28:56.325Z,4.37
2019-02-27T20:33:59.301Z,4.53
2019-02-27T20:39:04.168Z,4.59
2019-02-27T20:44:07.167Z,4.63
2019-02-27T20:49:10.466Z,4.65
2019-02-27T20:54:15.430Z,4.56
2019-02-27T20:59:18.957Z,4.50
2019-02-27T21:04:22.124Z,4.41
2019-02-27T21:09:25.269Z,4.36
2019-02-27T21:14:28.269Z,4.40
2019-02-27T21:19:33.854Z,4.44
2019-02-27T21:24:37.334Z,4.49
2019-02-27T21:29:43.380Z,4.21
2019-02-27T21:34:46.275Z,3.90
2019-02-27T21:39:49.331Z,4.12
2019-02-27T21:44:52.547Z,3.96
2019-02-27T21:49:55.522Z,4.36
2019-02-27T21:54:58.500Z,4.59
2019-02-27T22:00:01.493Z,5.20
2019-02-27T22:05:05.434Z,5.32
2019-02-27T22:10:10.298Z,5.24
2019-02-27T22:15:25.871Z,5.14
2019-02-27T22:20:28.823Z,5.28
2019-02-27T22:25:31.877Z,5.21
2019-02-27T22:30:34.948Z,5.00
2019-02-27T22:35:38.614Z,4.85
2019-02-27T22:40:41.881Z,4.60
2019-02-27T22:45:44.841Z,4.56
2019-02-27T22:50:47.996Z,4.50
2019-02-27T22:55:51.047Z,4.55
2019-02-27T23:01:11.127Z,4.26
2019-02-27T23:06:14.378Z,4.14
2019-02-27T23:11:18.199Z,4.24
2019-02-27T23:16:21.227Z,4.24
2019-02-27T23:21:26.638Z,4.42
2019-02-27T23:26:48.202Z,4.67
2019-02-27T23:31:51.148Z,4.77
2019-02-27T23:36:55.828Z,4.64
2019-02-27T23:41:59.425Z,4.57
2019-02-27T23:47:02.536Z,4.49
2019-02-27T23:52:05.510Z,4.41
2019-02-27T23:57:08.649Z,4.24
